Dexter, Indiana
Current Conditions -  °F | °C
As of 12:15 PM on Friday 19 Dec 2014 (Local Time) from KHNB Reporting Station
Clear Clear  
Wind Chill: 26°   Ceiling: Unl
Heat Index: 32°   Visibility: 9mi
Dew Point: 21°   Wind: 6mph
Humidity: 64%   Direction: 10°N
Pressure: 30.29"   Gusts: NA
Location:  38.0275°N, 86.57°W
Report Text: KHNB 191815Z AUTO 01005KT 9SM CLR 00/M06 A3029 RMK AO1
Loading
Personal Weather Stations






























Interactive Weather Map New forecast layout! Learn more

10-Day Weather Forecast

Advertisements
Track Severe Weather on mobile